FW4357 Weather Reports


Display with metric or nautical units.
time (UTC)temp
F
wind
direction
speed
MPH
gust
MPH
rain 1hr
in
rain 24hr
in
rain mn
in
humidity
%
barometer
mb
20191018145403 72 67 0.0 3.0 0.00 0.00 0.00 69 1013.6
20191018145202 72 39 0.0 2.0 0.00 0.00 0.00 68 1013.7
20191018145003 72 39 0.0 4.0 0.00 0.00 0.00 69 1013.8
20191018144803 72 39 0.0 4.0 0.00 0.00 0.00 68 1013.7
20191018144602 72 39 0.0 4.0 0.00 0.00 0.00 69 1013.7
20191018144402 72 39 0.0 4.0 0.00 0.00 0.00 68 1013.8
20191018144203 72 39 0.0 4.0 0.00 0.00 0.00 69 1013.9
20191018144002 72 40 0.0 3.0 0.00 0.00 0.00 71 1013.9
20191018143802 72 0 0.0 0.0 0.00 0.00 0.00 70 1014.0
20191018143603 72 0 0.0 0.0 0.00 0.00 0.00 72 1014.0
20191018143402 72 0 0.0 0.0 0.00 0.00 0.00 72 1014.0
20191018143203 72 0 0.0 0.0 0.00 0.00 0.00 70 1014.1
20191018143002 71 0 0.0 0.0 0.00 0.00 0.00 71 1014.2
20191018142802 71 0 0.0 0.0 0.00 0.00 0.00 72 1014.1
20191018142603 71 0 0.0 0.0 0.00 0.00 0.00 72 1014.1
20191018142402 71 0 0.0 0.0 0.00 0.00 0.00 71 1014.1
20191018142202 71 0 0.0 0.0 0.00 0.00 0.00 70 1014.2
20191018142002 71 0 0.0 0.0 0.00 0.00 0.00 69 1014.2
20191018141803 71 0 0.0 0.0 0.00 0.00 0.00 68 1014.3
20191018141602 71 0 0.0 0.0 0.00 0.00 0.00 70 1014.4
20191018141403 71 0 0.0 0.0 0.00 0.00 0.00 71 1014.4
20191018141202 70 106 0.0 5.0 0.00 0.00 0.00 71 1014.3
20191018141002 70 103 0.0 6.0 0.00 0.00 0.00 71 1013.8
20191018140802 70 103 0.0 6.0 0.00 0.00 0.00 72 1013.5
20191018140602 70 103 0.0 6.0 0.00 0.00 0.00 72 1013.4
20191018140403 70 101 0.0 6.0 0.00 0.00 0.00 72 1013.3
20191018140202 70 61 0.0 6.0 0.00 0.00 0.00 73 1013.3
20191018140002 70 32 1.0 5.0 0.00 0.00 0.00 73 1013.2
20191018135802 70 31 1.0 5.0 0.00 0.00 0.00 73 1013.1
20191018135603 70 33 1.0 5.0 0.00 0.00 0.00 73 1013.2
20191018135403 70 36 1.0 5.0 0.00 0.00 0.00 73 1013.3
20191018135202 70 39 1.0 4.0 0.00 0.00 0.00 73 1013.5
20191018135003 70 41 0.0 4.0 0.00 0.00 0.00 74 1013.5
20191018134803 70 48 0.0 4.0 0.00 0.00 0.00 73 1013.7
20191018134603 70 57 0.0 3.0 0.00 0.00 0.00 73 1013.8
20191018134403 70 54 0.0 2.0 0.00 0.00 0.00 73 1013.9
20191018134202 70 0 0.0 0.0 0.00 0.00 0.00 73 1014.0
20191018134003 69 0 0.0 0.0 0.00 0.00 0.00 73 1014.0
20191018133802 69 49 0.0 2.0 0.00 0.00 0.00 73 1014.1
20191018133602 69 49 0.0 2.0 0.00 0.00 0.00 73 1014.1
20191018133403 69 49 0.0 2.0 0.00 0.00 0.00 73 1014.0
20191018133202 69 46 0.0 2.0 0.00 0.00 0.00 74 1013.7
20191018133002 69 43 0.0 2.0 0.00 0.00 0.00 74 1013.7
20191018132803 69 42 0.0 2.0 0.00 0.00 0.00 74 1013.6
20191018132603 69 42 0.0 2.0 0.00 0.00 0.00 75 1013.7
20191018132402 69 42 0.0 2.0 0.00 0.00 0.00 75 1013.8
20191018132202 69 41 0.0 2.0 0.00 0.00 0.00 76 1013.7
20191018132003 69 0 0.0 0.0 0.00 0.00 0.00 77 1014.0
20191018131802 69 0 0.0 0.0 0.00 0.00 0.00 76 1014.1
20191018131602 68 0 0.0 0.0 0.00 0.00 0.00 76 1014.3
20191018131403 68 0 0.0 0.0 0.00 0.00 0.00 76 1014.3
20191018131202 68 39 0.0 3.0 0.00 0.00 0.00 77 1014.3
20191018131002 68 39 0.0 3.0 0.00 0.00 0.00 77 1014.1
20191018130803 68 39 0.0 3.0 0.00 0.00 0.00 77 1014.0
20191018130603 68 39 0.0 3.0 0.00 0.00 0.00 77 1014.0
20191018130402 68 39 0.0 3.0 0.00 0.00 0.00 77 1013.9
20191018130203 68 0 0.0 0.0 0.00 0.00 0.00 78 1013.8
20191018130002 68 0 0.0 0.0 0.00 0.00 0.00 78 1013.9
20191018125802 68 0 0.0 0.0 0.00 0.00 0.00 78 1014.0
20191018125603 68 0 0.0 0.0 0.00 0.00 0.00 78 1014.0
20191018125402 68 39 0.0 3.0 0.00 0.00 0.00 79 1014.0
20191018125202 68 39 0.0 3.0 0.00 0.00 0.00 79 1014.0
20191018125002 68 39 0.0 3.0 0.00 0.00 0.00 79 1013.9
20191018124803 68 39 0.0 3.0 0.00 0.00 0.00 80 1013.8
20191018124602 67 39 0.0 3.0 0.00 0.00 0.00 80 1013.8
20191018124402 67 38 0.0 2.0 0.00 0.00 0.00 80 1013.8
20191018124203 67 0 0.0 0.0 0.00 0.00 0.00 80 1013.7
20191018124002 67 0 0.0 0.0 0.00 0.00 0.00 78 1013.6
20191018123803 67 0 0.0 0.0 0.00 0.00 0.00 78 1013.7
20191018123602 67 0 0.0 0.0 0.00 0.00 0.00 78 1013.6
20191018123402 67 0 0.0 0.0 0.00 0.00 0.00 78 1013.6
20191018123203 67 0 0.0 0.0 0.00 0.00 0.00 78 1013.5
20191018123003 67 0 0.0 0.0 0.00 0.00 0.00 78 1013.5
20191018122802 67 0 0.0 0.0 0.00 0.00 0.00 78 1013.5
20191018122602 67 0 0.0 0.0 0.00 0.00 0.00 78 1013.5
20191018122403 67 0 0.0 0.0 0.00 0.00 0.00 78 1013.5
20191018122202 67 0 0.0 0.0 0.00 0.00 0.00 78 1013.5
20191018122002 67 0 0.0 0.0 0.00 0.00 0.00 78 1013.5
20191018121802 67 0 0.0 0.0 0.00 0.00 0.00 78 1013.5
20191018121603 67 0 0.0 0.0 0.00 0.00 0.00 78 1013.5
20191018121402 67 0 0.0 0.0 0.00 0.00 0.00 78 1013.5
20191018121203 67 0 0.0 0.0 0.00 0.00 0.00 78 1013.5
20191018121003 67 0 0.0 0.0 0.00 0.00 0.00 78 1013.5
20191018120803 67 0 0.0 0.0 0.00 0.00 0.00 78 1013.5
20191018120603 67 0 0.0 0.0 0.00 0.00 0.00 78 1013.4
20191018120402 67 0 0.0 0.0 0.00 0.00 0.00 78 1013.5
20191018120202 67 0 0.0 0.0 0.00 0.00 0.00 78 1013.5
20191018120003 67 0 0.0 0.0 0.00 0.00 0.00 78 1013.4
20191018115802 67 0 0.0 0.0 0.00 0.00 0.00 78 1013.5
20191018115603 67 0 0.0 0.0 0.00 0.00 0.00 78 1013.5
20191018115402 67 0 0.0 0.0 0.00 0.00 0.00 78 1013.4
20191018115202 67 0 0.0 0.0 0.00 0.00 0.00 78 1013.2
20191018115002 67 0 0.0 0.0 0.00 0.00 0.00 78 1013.1
20191018114803 67 0 0.0 0.0 0.00 0.00 0.00 78 1013.1
20191018114603 67 0 0.0 0.0 0.00 0.00 0.00 78 1013.0
20191018114402 67 0 0.0 0.0 0.00 0.00 0.00 78 1012.7
20191018114203 67 0 0.0 0.0 0.00 0.00 0.00 78 1012.6
20191018114002 67 0 0.0 0.0 0.00 0.00 0.00 78 1012.7
20191018113802 67 0 0.0 0.0 0.00 0.00 0.00 78 1012.7
20191018113602 67 0 0.0 0.0 0.00 0.00 0.00 78 1012.5
20191018113403 67 0 0.0 0.0 0.00 0.00 0.00 78 1012.6
20191018113203 67 0 0.0 0.0 0.00 0.00 0.00 78 1012.5
20191018113002 67 0 0.0 0.0 0.00 0.00 0.00 78 1012.4
20191018112802 67 0 0.0 0.0 0.00 0.00 0.00 78 1012.4
20191018112603 67 0 0.0 0.0 0.00 0.00 0.00 78 1012.4
20191018112402 67 0 0.0 0.0 0.00 0.00 0.00 78 1012.4
20191018112203 67 0 0.0 0.0 0.00 0.00 0.00 78 1012.4
20191018112002 67 0 0.0 0.0 0.00 0.00 0.00 78 1012.4
20191018111803 67 0 0.0 0.0 0.00 0.00 0.00 78 1012.5
20191018111602 67 0 0.0 0.0 0.00 0.00 0.00 78 1012.6
20191018111402 67 0 0.0 0.0 0.00 0.00 0.00 78 1012.7
20191018111202 67 0 0.0 0.0 0.00 0.00 0.00 78 1012.6
20191018111003 67 0 0.0 0.0 0.00 0.00 0.00 78 1012.5
20191018110802 67 0 0.0 0.0 0.00 0.00 0.00 78 1012.5
20191018110602 67 0 0.0 0.0 0.00 0.00 0.00 78 1012.6
20191018110403 67 0 0.0 0.0 0.00 0.00 0.00 78 1012.6
20191018110203 67 0 0.0 0.0 0.00 0.00 0.00 78 1012.5
20191018110002 67 0 0.0 0.0 0.00 0.00 0.00 78 1012.5
20191018105802 67 0 0.0 0.0 0.00 0.00 0.00 78 1012.7
20191018105603 67 0 0.0 0.0 0.00 0.00 0.00 78 1012.6
20191018105403 67 0 0.0 0.0 0.00 0.00 0.00 78 1012.6
20191018105202 67 0 0.0 0.0 0.00 0.00 0.00 78 1012.7
20191018105003 67 0 0.0 0.0 0.00 0.00 0.00 78 1012.8
20191018104803 67 0 0.0 0.0 0.00 0.00 0.00 78 1012.8
20191018104604 67 0 0.0 0.0 0.00 0.00 0.00 78 1012.7
20191018104402 67 0 0.0 0.0 0.00 0.00 0.00 78 1012.7
20191018104203 67 0 0.0 0.0 0.00 0.00 0.00 78 1012.6
20191018104003 67 0 0.0 0.0 0.00 0.00 0.00 78 1012.4
20191018103803 67 0 0.0 0.0 0.00 0.00 0.00 78 1012.4
20191018103603 67 0 0.0 0.0 0.00 0.00 0.00 78 1012.3
20191018103402 67 0 0.0 0.0 0.00 0.00 0.00 78 1012.4
20191018103202 67 0 0.0 0.0 0.00 0.00 0.00 78 1012.4
20191018103003 67 0 0.0 0.0 0.00 0.00 0.00 78 1012.4
20191018102802 67 0 0.0 0.0 0.00 0.00 0.00 78 1012.4
20191018102602 67 0 0.0 0.0 0.00 0.00 0.00 78 1012.4
20191018102402 67 0 0.0 0.0 0.00 0.00 0.00 78 1012.3
20191018102203 67 0 0.0 0.0 0.00 0.00 0.00 78 1012.2
20191018102002 67 0 0.0 0.0 0.00 0.00 0.00 78 1012.2
20191018101802 67 0 0.0 0.0 0.00 0.00 0.00 78 1012.2
20191018101603 67 0 0.0 0.0 0.00 0.00 0.00 78 1012.1
20191018101403 67 0 0.0 0.0 0.00 0.00 0.00 78 1012.2
20191018101202 67 0 0.0 0.0 0.00 0.00 0.00 78 1012.2
20191018101003 67 0 0.0 0.0 0.00 0.00 0.00 78 1012.2
20191018100803 67 0 0.0 0.0 0.00 0.00 0.00 78 1012.2
20191018100603 67 0 0.0 0.0 0.00 0.00 0.00 78 1012.1
20191018100402 67 0 0.0 0.0 0.00 0.00 0.00 78 1012.0
20191018100203 67 0 0.0 0.0 0.00 0.00 0.00 78 1012.0
20191018100003 67 0 0.0 0.0 0.00 0.00 0.00 78 1012.0
20191018095802 67 0 0.0 0.0 0.00 0.00 0.00 78 1011.8
20191018095603 67 0 0.0 0.0 0.00 0.00 0.00 78 1011.8
20191018095403 67 0 0.0 0.0 0.00 0.00 0.00 78 1011.9
20191018095203 67 0 0.0 0.0 0.00 0.00 0.00 78 1011.9
20191018095002 67 0 0.0 0.0 0.00 0.00 0.00 78 1011.9
20191018094802 67 0 0.0 0.0 0.00 0.00 0.00 78 1011.9
20191018094602 67 0 0.0 0.0 0.00 0.00 0.00 78 1011.8
20191018094403 67 0 0.0 0.0 0.00 0.00 0.00 78 1011.8
20191018094202 67 0 0.0 0.0 0.00 0.00 0.00 78 1011.9
20191018094003 67 0 0.0 0.0 0.00 0.00 0.00 78 1011.9
20191018093802 67 0 0.0 0.0 0.00 0.00 0.00 78 1011.9
20191018093603 67 0 0.0 0.0 0.00 0.00 0.00 78 1011.9
20191018093402 67 0 0.0 0.0 0.00 0.00 0.00 78 1011.8
20191018093203 67 0 0.0 0.0 0.00 0.00 0.00 78 1011.7
20191018093002 67 0 0.0 0.0 0.00 0.00 0.00 78 1011.7
20191018092803 67 0 0.0 0.0 0.00 0.00 0.00 78 1011.6
20191018092602 67 0 0.0 0.0 0.00 0.00 0.00 78 1011.6
20191018092402 67 0 0.0 0.0 0.00 0.00 0.00 78 1011.6
20191018092202 67 0 0.0 0.0 0.00 0.00 0.00 78 1011.5
20191018092005 67 0 0.0 0.0 0.00 0.00 0.00 78 1011.5
20191018091605 67 0 0.0 0.0 0.00 0.00 0.00 78 1011.6
20191018091403 67 0 0.0 0.0 0.00 0.00 0.00 78 1011.7
20191018091203 67 0 0.0 0.0 0.00 0.00 0.00 78 1011.7
20191018091003 67 0 0.0 0.0 0.00 0.00 0.00 78 1011.8
20191018090802 67 0 0.0 0.0 0.00 0.00 0.00 78 1011.8
20191018090603 67 0 0.0 0.0 0.00 0.00 0.00 78 1011.8
20191018090403 67 40 0.0 1.0 0.00 0.00 0.00 78 1011.7
20191018090202 67 40 0.0 1.0 0.00 0.00 0.00 78 1011.7
20191018090002 67 40 0.0 1.0 0.00 0.00 0.00 78 1011.7
20191018085803 67 40 0.0 1.0 0.00 0.00 0.00 78 1011.7
20191018085602 67 40 0.0 1.0 0.00 0.00 0.00 78 1011.7
20191018085402 67 34 0.0 1.0 0.00 0.00 0.00 78 1011.8
20191018085202 67 38 0.0 2.0 0.00 0.00 0.00 78 1011.7
20191018085003 67 38 0.0 2.0 0.00 0.00 0.00 78 1011.7
20191018084802 67 39 0.0 2.0 0.00 0.00 0.00 78 1011.6
20191018084602 67 39 0.0 2.0 0.00 0.00 0.00 78 1011.5
20191018084402 67 39 0.0 2.0 0.00 0.00 0.00 78 1011.4
20191018084203 67 44 0.0 2.0 0.00 0.00 0.00 78 1011.4
20191018084003 67 44 0.0 2.0 0.00 0.00 0.00 78 1011.5
20191018083802 67 44 0.0 1.0 0.00 0.00 0.00 78 1011.4
20191018083603 67 0 0.0 0.0 0.00 0.00 0.00 78 1011.2
20191018083403 67 0 0.0 0.0 0.00 0.00 0.00 78 1011.1
20191018083202 67 0 0.0 0.0 0.00 0.00 0.00 78 1011.1
20191018083003 67 0 0.0 0.0 0.00 0.00 0.00 78 1011.3
20191018082803 67 0 0.0 0.0 0.00 0.00 0.00 78 1011.5
20191018082603 67 0 0.0 0.0 0.00 0.00 0.00 78 1011.7
20191018082402 67 0 0.0 0.0 0.00 0.00 0.00 78 1011.8
20191018082203 67 0 0.0 0.0 0.00 0.00 0.00 78 1011.9
20191018082003 67 0 0.0 0.0 0.00 0.00 0.00 78 1011.9
20191018081802 67 0 0.0 0.0 0.00 0.00 0.00 78 1012.1
20191018081602 67 0 0.0 0.0 0.00 0.00 0.00 78 1012.1
20191018081402 67 0 0.0 0.0 0.00 0.00 0.00 78 1012.2
20191018081203 67 0 0.0 0.0 0.00 0.00 0.00 78 1012.2
20191018081002 67 0 0.0 0.0 0.00 0.00 0.00 78 1012.2
20191018080802 67 0 0.0 0.0 0.00 0.00 0.00 78 1012.2
20191018080603 67 0 0.0 0.0 0.00 0.00 0.00 78 1012.2
20191018080402 67 0 0.0 0.0 0.00 0.00 0.00 78 1012.2
20191018080202 67 0 0.0 0.0 0.00 0.00 0.00 78 1012.1
20191018080003 67 0 0.0 0.0 0.00 0.00 0.00 78 1011.9
20191018075803 67 0 0.0 0.0 0.00 0.00 0.00 78 1011.8
20191018075603 67 0 0.0 0.0 0.00 0.00 0.00 78 1011.7
20191018075402 67 0 0.0 0.0 0.00 0.00 0.00 78 1011.4
20191018075203 67 0 0.0 0.0 0.00 0.00 0.00 78 1011.4
20191018075003 67 0 0.0 0.0 0.00 0.00 0.00 78 1011.4
20191018074802 67 0 0.0 0.0 0.00 0.00 0.00 78 1011.6
20191018074603 67 0 0.0 0.0 0.00 0.00 0.00 78 1011.6
20191018074403 67 0 0.0 0.0 0.00 0.00 0.00 78 1011.8
20191018074202 67 0 0.0 0.0 0.00 0.00 0.00 78 1011.9
20191018074002 67 0 0.0 0.0 0.00 0.00 0.00 78 1012.0
20191018073803 67 0 0.0 0.0 0.00 0.00 0.00 78 1012.0
20191018073605 67 70 0.0 2.0 0.00 0.00 0.00 78 1012.0
20191018073405 67 59 0.0 2.0 0.00 0.00 0.00 78 1012.0
20191018073204 67 59 0.0 2.0 0.00 0.00 0.00 78 1011.8
20191018073004 67 59 0.0 2.0 0.00 0.00 0.00 78 1011.8
20191018072803 67 59 0.0 2.0 0.00 0.00 0.00 78 1011.7
20191018072603 67 26 0.0 1.0 0.00 0.00 0.00 78 1011.7
20191018072402 67 0 0.0 0.0 0.00 0.00 0.00 78 1011.7
20191018072203 67 0 0.0 0.0 0.00 0.00 0.00 78 1011.7
20191018072003 67 0 0.0 0.0 0.00 0.00 0.00 78 1011.6
20191018071802 67 0 0.0 0.0 0.00 0.00 0.00 78 1011.7
20191018071603 67 0 0.0 0.0 0.00 0.00 0.00 78 1011.9
20191018071402 67 0 0.0 0.0 0.00 0.00 0.00 78 1012.0
20191018071202 67 0 0.0 0.0 0.00 0.00 0.00 78 1012.2
20191018071003 67 0 0.0 0.0 0.00 0.00 0.00 78 1012.2
20191018070802 67 0 0.0 0.0 0.00 0.00 0.00 78 1012.3
20191018070602 67 0 0.0 0.0 0.00 0.00 0.00 78 1012.4
20191018070402 67 0 0.0 0.0 0.00 0.00 0.00 78 1012.5
20191018070203 67 0 0.0 0.0 0.00 0.00 0.00 78 1012.4
20191018070002 67 0 0.0 0.0 0.00 0.00 0.00 78 1012.4
20191018065803 67 0 0.0 0.0 0.00 0.00 0.00 78 1012.5
20191018065602 67 0 0.0 0.0 0.00 0.00 0.00 78 1012.6
20191018065403 67 0 0.0 0.0 0.00 0.00 0.00 78 1012.5
20191018065202 67 0 0.0 0.0 0.00 0.00 0.00 78 1012.6
20191018065003 67 0 0.0 0.0 0.00 0.00 0.00 78 1012.6
20191018064802 67 0 0.0 0.0 0.00 0.00 0.00 78 1012.6
20191018064602 67 0 0.0 0.0 0.00 0.00 0.00 78 1012.7
20191018064402 67 0 0.0 0.0 0.00 0.00 0.00 78 1012.8
20191018064202 67 0 0.0 0.0 0.00 0.00 0.00 78 1012.9
20191018064002 67 0 0.0 0.0 0.00 0.00 0.00 78 1013.0
20191018063802 67 0 0.0 0.0 0.00 0.00 0.00 78 1012.9
20191018063603 67 0 0.0 0.0 0.00 0.00 0.00 78 1013.0
20191018063403 67 0 0.0 0.0 0.00 0.00 0.00 79 1013.1
20191018063202 68 0 0.0 0.0 0.00 0.00 0.00 80 1013.1
20191018063002 68 0 0.0 0.0 0.00 0.00 0.00 79 1013.1
20191018062802 67 0 0.0 0.0 0.00 0.00 0.00 78 1013.2
20191018062602 67 0 0.0 0.0 0.00 0.00 0.00 77 1013.2
20191018062403 67 0 0.0 0.0 0.00 0.00 0.00 76 1013.2
20191018062202 67 0 0.0 0.0 0.00 0.00 0.00 76 1013.3
20191018062003 67 0 0.0 0.0 0.00 0.00 0.00 76 1013.2
20191018061803 67 0 0.0 0.0 0.00 0.00 0.00 77 1013.2
20191018061602 68 0 0.0 0.0 0.00 0.00 0.00 78 1013.2
20191018061402 68 0 0.0 0.0 0.00 0.00 0.00 79 1013.1
20191018061203 68 0 0.0 0.0 0.00 0.00 0.00 79 1013.0
20191018061003 68 0 0.0 0.0 0.00 0.00 0.00 80 1013.0
20191018060802 68 0 0.0 0.0 0.00 0.00 0.00 80 1013.0
20191018060602 68 0 0.0 0.0 0.00 0.00 0.00 81 1013.0
20191018060402 68 0 0.0 0.0 0.00 0.00 0.00 81 1013.0
20191018060203 68 0 0.0 0.0 0.00 0.00 0.00 81 1013.0
20191018060002 68 0 0.0 0.0 0.00 0.00 0.00 80 1013.1
20191018055802 68 0 0.0 0.0 0.00 0.00 0.00 79 1013.1
20191018055602 68 0 0.0 0.0 0.00 0.00 0.00 78 1013.1
20191018055403 68 0 0.0 0.0 0.00 0.00 0.00 79 1013.2
20191018055202 68 0 0.0 0.0 0.00 0.00 0.00 79 1013.2
20191018055003 69 0 0.0 0.0 0.00 0.00 0.00 79 1013.2
20191018054802 69 0 0.0 0.0 0.00 0.00 0.00 79 1013.1
20191018054602 69 0 0.0 0.0 0.00 0.00 0.00 79 1013.1
20191018054403 69 0 0.0 0.0 0.00 0.00 0.00 79 1013.1
20191018054202 69 0 0.0 0.0 0.00 0.00 0.00 79 1013.1
20191018054002 69 0 0.0 0.0 0.00 0.00 0.00 79 1013.1
20191018053803 69 0 0.0 0.0 0.00 0.00 0.00 79 1013.2
20191018053602 69 0 0.0 0.0 0.00 0.00 0.00 79 1013.2
20191018053403 69 0 0.0 0.0 0.00 0.00 0.00 79 1013.3
20191018053203 69 24 0.0 3.0 0.00 0.00 0.00 79 1013.2
20191018053002 69 24 0.0 3.0 0.00 0.00 0.00 79 1013.3
20191018052803 69 24 0.0 3.0 0.00 0.00 0.00 79 1013.2
20191018052602 69 24 0.0 3.0 0.00 0.00 0.00 79 1013.2
20191018052402 69 24 0.0 3.0 0.00 0.00 0.00 79 1013.2
20191018052202 70 0 0.0 0.0 0.00 0.00 0.00 79 1013.3
20191018052003 70 0 0.0 0.0 0.00 0.00 0.00 80 1013.3
20191018051803 70 22 0.0 2.0 0.00 0.00 0.00 79 1013.3
20191018051602 70 22 0.0 2.0 0.00 0.00 0.00 79 1013.3
20191018051403 70 22 0.0 2.0 0.00 0.00 0.00 79 1013.3
20191018051202 70 21 0.0 2.0 0.00 0.00 0.00 79 1013.2
20191018051002 70 21 0.0 2.0 0.00 0.00 0.00 79 1013.3
20191018050803 70 19 0.0 1.0 0.00 0.00 0.00 79 1013.3
20191018050603 70 19 0.0 4.0 0.00 0.00 0.00 78 1013.3
20191018050402 70 17 0.0 4.0 0.00 0.00 0.00 78 1013.3
20191018050203 70 17 0.0 4.0 0.00 0.00 0.00 79 1013.3
20191018050002 70 17 0.0 4.0 0.00 0.00 0.00 78 1013.2
20191018045803 70 17 0.0 4.0 0.00 0.00 0.00 78 1013.3
20191018045603 70 13 0.0 4.0 0.00 0.00 0.00 78 1013.3
20191018045402 70 0 0.0 0.0 0.00 0.00 0.00 78 1013.3
20191018045202 70 10 0.0 2.0 0.00 0.00 0.00 78 1013.3
20191018045002 70 10 0.0 2.0 0.00 0.00 0.00 77 1013.5
20191018044803 70 10 0.0 2.0 0.00 0.00 0.00 78 1013.4
20191018044602 70 10 0.0 2.0 0.00 0.00 0.00 78 1013.5
20191018044403 70 10 0.0 2.0 0.00 0.00 0.00 78 1013.4
20191018044202 70 0 0.0 0.0 0.00 0.00 0.00 78 1013.4
20191018044003 70 0 0.0 0.0 0.00 0.00 0.00 78 1013.3
20191018043802 70 0 0.0 0.0 0.00 0.01 0.00 78 1013.4
20191018043602 70 0 0.0 0.0 0.00 0.01 0.00 78 1013.3
20191018043403 70 0 0.0 0.0 0.00 0.01 0.00 78 1013.3
20191018043203 71 0 0.0 0.0 0.00 0.01 0.00 79 1013.3
20191018043003 71 0 0.0 0.0 0.00 0.01 0.00 79 1013.3
20191018042803 71 0 0.0 0.0 0.00 0.01 0.00 79 1013.2
20191018042603 71 0 0.0 0.0 0.00 0.01 0.00 80 1013.2
20191018042402 71 0 0.0 0.0 0.00 0.01 0.00 80 1013.1
20191018042203 71 0 0.0 0.0 0.00 0.01 0.00 80 1013.1
20191018042002 71 0 0.0 0.0 0.00 0.01 0.00 80 1013.2
20191018041802 71 0 0.0 0.0 0.00 0.01 0.00 81 1013.1
20191018041603 71 0 0.0 0.0 0.00 0.01 0.00 81 1013.2
20191018041403 71 0 0.0 0.0 0.00 0.01 0.00 81 1013.3
20191018041202 72 0 0.0 0.0 0.00 0.01 0.00 81 1013.3
20191018041002 72 0 0.0 0.0 0.00 0.01 0.00 81 1013.3
20191018040803 72 0 0.0 0.0 0.00 0.01 0.00 81 1013.1
20191018040602 72 355 0.0 1.0 0.00 0.01 0.00 80 1013.1
20191018040402 72 355 0.0 1.0 0.00 0.01 0.00 80 1013.1
20191018040203 72 355 0.0 1.0 0.00 0.01 0.00 80 1013.2
20191018040003 72 355 0.0 1.0 0.00 0.01 0.00 80 1013.2
20191018035802 72 355 0.0 1.0 0.00 0.01 0.01 79 1013.3
20191018035602 72 0 0.0 0.0 0.00 0.01 0.01 79 1013.3
20191018035402 72 0 0.0 0.0 0.00 0.01 0.01 79 1013.4
20191018035203 72 0 0.0 0.0 0.00 0.01 0.01 79 1013.3
20191018035002 72 0 0.0 0.0 0.00 0.01 0.01 79 1013.3
20191018034803 72 0 0.0 0.0 0.00 0.01 0.01 79 1013.3
20191018034602 72 0 0.0 0.0 0.00 0.01 0.01 79 1013.2
20191018034402 72 0 0.0 0.0 0.00 0.01 0.01 78 1013.3
20191018034202 72 0 0.0 0.0 0.00 0.01 0.01 78 1013.1
20191018034003 72 0 0.0 0.0 0.00 0.01 0.01 78 1013.2
20191018033802 72 0 0.0 0.0 0.00 0.01 0.01 78 1013.2
20191018033602 72 0 0.0 0.0 0.00 0.01 0.01 78 1013.2
20191018033403 72 0 0.0 0.0 0.00 0.01 0.01 78 1013.3
20191018033203 72 0 0.0 0.0 0.00 0.01 0.01 78 1013.3
20191018033002 72 0 0.0 0.0 0.00 0.01 0.01 78 1013.4
20191018032803 72 0 0.0 0.0 0.00 0.01 0.01 78 1013.3
20191018032603 72 0 0.0 0.0 0.00 0.01 0.01 77 1013.3
20191018032402 73 0 0.0 0.0 0.00 0.01 0.01 77 1013.3
20191018032202 73 0 0.0 0.0 0.00 0.01 0.01 78 1013.4
20191018032003 73 0 0.0 0.0 0.00 0.01 0.01 78 1013.3
20191018031802 73 0 0.0 0.0 0.00 0.01 0.01 78 1013.2
20191018031602 73 0 0.0 0.0 0.00 0.01 0.01 78 1013.2
20191018031402 73 0 0.0 0.0 0.00 0.01 0.01 78 1013.2
20191018031203 73 0 0.0 0.0 0.00 0.01 0.01 78 1013.3
20191018031002 73 0 0.0 0.0 0.00 0.01 0.01 78 1013.2
20191018030803 73 0 0.0 0.0 0.00 0.01 0.01 78 1013.2
20191018030602 73 0 0.0 0.0 0.00 0.01 0.01 78 1013.2
20191018030403 73 0 0.0 0.0 0.00 0.01 0.01 78 1013.2
20191018030202 73 0 0.0 0.0 0.00 0.01 0.01 78 1013.3
20191018030003 73 0 0.0 0.0 0.00 0.01 0.01 78 1013.4
20191018025802 73 0 0.0 0.0 0.00 0.01 0.01 78 1013.4
20191018025603 73 0 0.0 0.0 0.00 0.01 0.01 78 1013.4
20191018025403 73 0 0.0 0.0 0.00 0.01 0.01 77 1013.3
20191018025202 73 0 0.0 0.0 0.00 0.01 0.01 77 1013.4
20191018025002 73 0 0.0 0.0 0.00 0.01 0.01 77 1013.3
20191018024803 73 0 0.0 0.0 0.00 0.01 0.01 77 1013.2
20191018024602 73 0 0.0 0.0 0.00 0.01 0.01 77 1013.2
20191018024403 73 0 0.0 0.0 0.00 0.01 0.01 77 1013.2
20191018024202 73 0 0.0 0.0 0.00 0.01 0.01 77 1013.1
20191018024002 73 0 0.0 0.0 0.00 0.01 0.01 78 1013.1
20191018023802 73 0 0.0 0.0 0.00 0.01 0.01 78 1013.1
20191018023603 74 0 0.0 0.0 0.00 0.01 0.01 78 1013.1
20191018023402 74 0 0.0 0.0 0.00 0.01 0.01 78 1013.1
20191018023203 74 0 0.0 0.0 0.00 0.01 0.01 78 1013.1
20191018023002 74 0 0.0 0.0 0.00 0.01 0.01 78 1013.1
20191018022802 74 0 0.0 0.0 0.00 0.01 0.01 78 1013.1
20191018022602 74 0 0.0 0.0 0.00 0.01 0.01 78 1013.1
20191018022403 74 0 0.0 0.0 0.00 0.01 0.01 78 1013.1
20191018022203 74 0 0.0 0.0 0.00 0.01 0.01 78 1013.1
20191018022002 74 0 0.0 0.0 0.00 0.01 0.01 77 1013.1
20191018021802 74 0 0.0 0.0 0.00 0.01 0.01 77 1013.2
20191018021603 74 0 0.0 0.0 0.00 0.01 0.01 77 1013.1
20191018021403 74 0 0.0 0.0 0.00 0.01 0.01 77 1013.1
20191018021202 74 0 0.0 0.0 0.00 0.01 0.01 77 1013.0
20191018021003 74 0 0.0 0.0 0.00 0.01 0.01 76 1012.9
20191018020803 74 0 0.0 0.0 0.00 0.01 0.01 76 1012.9
20191018020602 74 0 0.0 0.0 0.00 0.01 0.01 76 1012.9
20191018020402 74 0 0.0 0.0 0.00 0.01 0.01 76 1012.8
20191018020203 74 0 0.0 0.0 0.00 0.01 0.01 77 1012.7
20191018020003 74 0 0.0 0.0 0.00 0.01 0.01 76 1012.7
20191018015803 74 0 0.0 0.0 0.00 0.01 0.01 76 1012.6
20191018015602 74 0 0.0 0.0 0.00 0.01 0.01 76 1012.5
20191018015402 74 0 0.0 0.0 0.00 0.01 0.01 77 1012.5
20191018015203 74 0 0.0 0.0 0.00 0.01 0.01 77 1012.4
20191018015003 74 0 0.0 0.0 0.00 0.01 0.01 77 1012.4
20191018014802 74 0 0.0 0.0 0.00 0.01 0.01 77 1012.5
20191018014602 74 0 0.0 0.0 0.00 0.01 0.01 77 1012.4
20191018014403 74 0 0.0 0.0 0.00 0.01 0.01 77 1012.4
20191018014202 74 0 0.0 0.0 0.00 0.01 0.01 77 1012.5
20191018014002 75 0 0.0 0.0 0.00 0.01 0.01 77 1012.4
20191018013803 75 0 0.0 0.0 0.00 0.01 0.01 77 1012.3
20191018013602 75 0 0.0 0.0 0.00 0.01 0.01 77 1012.3
20191018013402 75 0 0.0 0.0 0.00 0.01 0.01 77 1012.3
20191018013203 75 0 0.0 0.0 0.00 0.01 0.01 77 1012.3
20191018013002 75 0 0.0 0.0 0.00 0.01 0.01 77 1012.3
20191018012802 75 0 0.0 0.0 0.00 0.01 0.01 76 1012.3
20191018012602 75 0 0.0 0.0 0.00 0.01 0.01 76 1012.3
20191018012402 75 0 0.0 0.0 0.00 0.01 0.01 77 1012.3
20191018012203 75 0 0.0 0.0 0.00 0.01 0.01 76 1012.3
20191018012003 75 0 0.0 0.0 0.00 0.01 0.01 76 1012.3
20191018011802 75 0 0.0 0.0 0.00 0.01 0.01 76 1012.3
20191018011603 75 0 0.0 0.0 0.00 0.01 0.01 76 1012.2
20191018011403 75 0 0.0 0.0 0.00 0.01 0.01 77 1012.3
20191018011202 75 0 0.0 0.0 0.00 0.01 0.01 77 1012.2
20191018011002 75 0 0.0 0.0 0.00 0.01 0.01 77 1012.2
20191018010803 75 0 0.0 0.0 0.00 0.01 0.01 77 1012.2
20191018010603 75 0 0.0 0.0 0.00 0.01 0.01 77 1012.2
20191018010402 75 0 0.0 0.0 0.00 0.01 0.01 77 1012.2
20191018010203 75 0 0.0 0.0 0.00 0.01 0.01 77 1012.2
20191018010002 75 0 0.0 0.0 0.00 0.01 0.01 77 1012.2
20191018005802 75 0 0.0 0.0 0.00 0.01 0.01 77 1012.2
20191018005602 75 0 0.0 0.0 0.00 0.01 0.01 77 1012.2
20191018005402 76 0 0.0 0.0 0.00 0.01 0.01 77 1012.2
20191018005202 76 0 0.0 0.0 0.00 0.01 0.01 77 1012.2
20191018005003 76 0 0.0 0.0 0.00 0.01 0.01 77 1012.3
20191018004802 76 0 0.0 0.0 0.00 0.01 0.01 77 1012.2
20191018004603 76 0 0.0 0.0 0.00 0.01 0.01 77 1012.2
20191018004402 76 0 0.0 0.0 0.00 0.01 0.01 77 1012.1
20191018004202 76 0 0.0 0.0 0.00 0.01 0.01 77 1012.1
20191018004002 76 0 0.0 0.0 0.00 0.01 0.01 77 1012.1
20191018003803 76 0 0.0 0.0 0.00 0.01 0.01 77 1012.0
20191018003602 76 0 0.0 0.0 0.00 0.01 0.01 76 1011.8
20191018003403 76 0 0.0 0.0 0.00 0.01 0.01 76 1011.8
20191018003202 76 0 0.0 0.0 0.00 0.01 0.01 76 1011.8
20191018003003 76 0 0.0 0.0 0.00 0.01 0.01 76 1011.7
20191018002802 76 0 0.0 0.0 0.00 0.01 0.01 76 1011.6
20191018002602 76 0 0.0 0.0 0.00 0.01 0.01 76 1011.6
20191018002402 76 0 0.0 0.0 0.00 0.01 0.01 76 1011.6
20191018002203 76 0 0.0 0.0 0.00 0.01 0.01 76 1011.5
20191018002002 76 0 0.0 0.0 0.00 0.01 0.01 76 1011.4
20191018001802 76 0 0.0 0.0 0.00 0.01 0.01 76 1011.5
20191018001603 76 0 0.0 0.0 0.00 0.01 0.01 76 1011.6
20191018001402 76 0 0.0 0.0 0.00 0.01 0.01 76 1011.7
20191018001202 76 0 0.0 0.0 0.00 0.01 0.01 76 1011.5
20191018001003 77 0 0.0 0.0 0.00 0.01 0.01 76 1011.4
20191018000802 77 0 0.0 0.0 0.00 0.01 0.01 76 1011.3
20191018000602 77 0 0.0 0.0 0.00 0.01 0.01 76 1011.3
20191018000403 77 0 0.0 0.0 0.00 0.01 0.01 75 1011.4
20191018000202 77 0 0.0 0.0 0.00 0.01 0.01 76 1011.4
20191018000002 77 0 0.0 0.0 0.00 0.01 0.01 75 1011.4
20191017235802 77 0 0.0 0.0 0.00 0.01 0.01 75 1011.4
20191017235602 77 0 0.0 0.0 0.00 0.01 0.01 75 1011.5
20191017235402 77 0 0.0 0.0 0.00 0.01 0.01 75 1011.6
20191017235203 77 0 0.0 0.0 0.00 0.01 0.01 74 1011.5
20191017235002 77 0 0.0 0.0 0.00 0.01 0.01 74 1011.5
20191017234803 77 0 0.0 0.0 0.00 0.01 0.01 74 1011.3
20191017234603 77 0 0.0 0.0 0.00 0.01 0.01 74 1011.3
20191017234402 78 0 0.0 0.0 0.00 0.01 0.01 74 1011.3
20191017234203 78 0 0.0 0.0 0.00 0.01 0.01 74 1011.3
20191017234003 78 0 0.0 0.0 0.00 0.01 0.01 74 1011.3
20191017233802 78 0 0.0 0.0 0.00 0.01 0.01 74 1011.3
20191017233603 78 0 0.0 0.0 0.00 0.01 0.01 74 1011.3
20191017233402 78 0 0.0 0.0 0.00 0.01 0.01 74 1011.2
20191017233203 78 0 0.0 0.0 0.00 0.01 0.01 74 1011.2
20191017233002 78 0 0.0 0.0 0.00 0.01 0.01 74 1011.2
20191017232803 78 0 0.0 0.0 0.00 0.01 0.01 74 1011.2
20191017232603 78 0 0.0 0.0 0.00 0.01 0.01 74 1011.3
20191017232402 78 0 0.0 0.0 0.00 0.01 0.01 74 1011.3
20191017232203 78 0 0.0 0.0 0.00 0.01 0.01 74 1011.3
20191017232002 78 0 0.0 0.0 0.00 0.01 0.01 73 1011.3
20191017231802 78 0 0.0 0.0 0.00 0.01 0.01 73 1011.3
20191017231603 78 0 0.0 0.0 0.00 0.01 0.01 73 1011.2
20191017231402 78 0 0.0 0.0 0.00 0.01 0.01 73 1011.2
20191017231202 78 0 0.0 0.0 0.00 0.01 0.01 73 1011.3
20191017231003 78 0 0.0 0.0 0.00 0.01 0.01 73 1011.3
20191017230802 79 0 0.0 0.0 0.00 0.01 0.01 73 1011.3
20191017230603 79 0 0.0 0.0 0.00 0.01 0.01 73 1011.3
20191017230403 79 0 0.0 0.0 0.00 0.01 0.01 72 1011.3
20191017230202 79 0 0.0 0.0 0.00 0.01 0.01 72 1011.3
20191017230002 79 0 0.0 0.0 0.00 0.01 0.01 72 1011.3
20191017225803 79 0 0.0 0.0 0.00 0.01 0.01 72 1011.3
20191017225603 79 0 0.0 0.0 0.00 0.01 0.01 72 1011.3
20191017225402 79 0 0.0 0.0 0.00 0.01 0.01 72 1011.3
20191017225202 79 0 0.0 0.0 0.00 0.01 0.01 72 1011.3
20191017225002 79 0 0.0 0.0 0.00 0.01 0.01 72 1011.4
20191017224803 79 0 0.0 0.0 0.00 0.01 0.01 72 1011.4
20191017224603 79 0 0.0 0.0 0.00 0.01 0.01 72 1011.3
20191017224402 79 0 0.0 0.0 0.00 0.01 0.01 72 1011.3
20191017224203 79 0 0.0 0.0 0.00 0.01 0.01 72 1011.3
20191017224002 80 0 0.0 0.0 0.00 0.01 0.01 72 1011.3
20191017223802 80 0 0.0 0.0 0.00 0.01 0.01 71 1011.3
20191017223603 80 0 0.0 0.0 0.00 0.01 0.01 71 1011.3
20191017223403 80 0 0.0 0.0 0.00 0.01 0.01 71 1011.3
20191017223202 80 0 0.0 0.0 0.00 0.01 0.01 70 1011.4
20191017223003 80 0 0.0 0.0 0.00 0.01 0.01 70 1011.3
20191017222802 80 31 0.0 2.0 0.00 0.01 0.01 70 1011.4
20191017222602 80 29 0.0 5.0 0.00 0.01 0.01 70 1011.4
20191017222403 80 29 0.0 5.0 0.00 0.01 0.01 69 1011.4
20191017222202 80 29 0.0 5.0 0.00 0.01 0.01 69 1011.4
20191017222003 80 18 0.0 5.0 0.00 0.01 0.01 69 1011.4
20191017221803 80 18 0.0 5.0 0.00 0.01 0.01 69 1011.4
20191017221602 80 344 0.0 2.0 0.00 0.01 0.01 68 1011.4
20191017221403 80 350 0.0 6.0 0.00 0.01 0.01 68 1011.4
20191017221203 80 348 1.0 6.0 0.00 0.01 0.01 68 1011.3
20191017221002 81 348 1.0 6.0 0.00 0.01 0.01 68 1011.3
20191017220803 81 348 1.0 6.0 0.00 0.01 0.01 68 1011.3
20191017220603 81 348 1.0 6.0 0.00 0.01 0.01 67 1011.3
20191017220402 81 349 1.0 5.0 0.00 0.01 0.01 67 1011.3
20191017220203 81 349 1.0 7.0 0.00 0.01 0.01 68 1011.3
20191017220003 81 352 1.0 7.0 0.00 0.01 0.01 67 1011.3
20191017215803 82 350 2.0 7.0 0.00 0.01 0.01 67 1011.3
20191017215603 82 351 2.0 7.0 0.00 0.01 0.01 66 1011.3
20191017215403 82 355 2.0 7.0 0.00 0.01 0.01 67 1011.3
20191017215203 82 356 1.0 6.0 0.00 0.01 0.01 67 1011.3
20191017215003 82 354 1.0 6.0 0.00 0.01 0.01 67 1011.2
20191017214802 82 1 1.0 6.0 0.00 0.01 0.01 67 1011.2
20191017214603 82 2 1.0 6.0 0.00 0.01 0.01 68 1011.1
20191017214402 82 359 1.0 5.0 0.00 0.01 0.01 68 1011.2
20191017214202 82 4 1.0 5.0 0.00 0.01 0.01 68 1011.2
20191017214003 81 4 1.0 5.0 0.00 0.01 0.01 68 1011.2
20191017213802 81 5 0.0 5.0 0.00 0.01 0.01 68 1011.2
20191017213602 81 5 0.0 5.0 0.00 0.01 0.01 68 1011.2
20191017213403 81 7 0.0 3.0 0.00 0.01 0.01 69 1011.2
20191017213202 81 0 0.0 0.0 0.00 0.01 0.01 68 1011.3
20191017213002 81 0 0.0 0.0 0.00 0.01 0.01 68 1011.3
20191017212803 81 0 0.0 0.0 0.00 0.01 0.01 68 1011.3
20191017212603 81 353 0.0 3.0 0.00 0.01 0.01 68 1011.4
20191017212402 81 346 0.0 5.0 0.00 0.01 0.01 68 1011.3
20191017212203 81 354 1.0 6.0 0.00 0.01 0.01 68 1011.3
20191017212003 81 355 1.0 7.0 0.00 0.01 0.01 67 1011.3
20191017211803 82 355 2.0 7.0 0.00 0.01 0.01 67 1011.3
20191017211603 82 356 2.0 7.0 0.00 0.01 0.01 66 1011.4
20191017211403 82 352 3.0 7.0 0.00 0.01 0.01 66 1011.4
20191017211202 82 348 3.0 7.0 0.00 0.01 0.01 66 1011.4
20191017211003 82 344 2.0 7.0 0.00 0.01 0.01 66 1011.4
20191017210802 82 343 2.0 7.0 0.00 0.01 0.01 66 1011.5
20191017210603 82 344 2.0 7.0 0.00 0.01 0.01 65 1011.5
20191017210402 82 346 2.0 8.0 0.00 0.01 0.01 65 1011.5
20191017210202 83 348 2.0 8.0 0.00 0.01 0.01 65 1011.5
20191017210002 83 350 2.0 8.0 0.00 0.01 0.01 66 1011.5
20191017205802 83 346 2.0 8.0 0.00 0.01 0.01 65 1011.5
20191017205603 83 340 2.0 8.0 0.00 0.01 0.01 65 1011.5
20191017205403 83 340 2.0 8.0 0.00 0.01 0.01 65 1011.4
20191017205203 83 343 2.0 8.0 0.00 0.01 0.01 65 1011.5
20191017205003 83 347 2.0 8.0 0.00 0.01 0.01 65 1011.5
20191017204803 83 349 2.0 8.0 0.00 0.01 0.01 65 1011.5
20191017204602 83 351 2.0 6.0 0.00 0.01 0.01 65 1011.4
20191017204402 83 357 2.0 6.0 0.00 0.01 0.01 65 1011.4
20191017204203 83 357 2.0 6.0 0.00 0.01 0.01 66 1011.4
20191017204002 83 352 2.0 6.0 0.00 0.01 0.01 65 1011.4
20191017203802 83 351 2.0 6.0 0.00 0.01 0.01 64 1011.5
20191017203603 83 352 2.0 6.0 0.00 0.01 0.01 65 1011.5
20191017203402 83 336 1.0 6.0 0.00 0.01 0.01 64 1011.5
20191017203202 84 325 1.0 7.0 0.00 0.01 0.01 65 1011.4
20191017203003 84 326 1.0 7.0 0.00 0.01 0.01 66 1011.5
20191017202803 83 323 1.0 7.0 0.00 0.01 0.01 66 1011.5
20191017202603 83 330 1.0 7.0 0.00 0.01 0.01 65 1011.6
20191017202403 83 337 1.0 7.0 0.00 0.01 0.01 65 1011.5
20191017202203 83 334 1.0 5.0 0.00 0.01 0.01 66 1011.4
20191017202002 83 342 2.0 5.0 0.00 0.01 0.01 67 1011.3
20191017201802 83 354 2.0 8.0 0.00 0.01 0.01 66 1011.4
20191017201603 83 356 3.0 8.0 0.00 0.01 0.01 66 1011.4
20191017201403 83 2 3.0 9.0 0.00 0.01 0.01 66 1011.5
20191017201202 82 5 4.0 9.0 0.00 0.01 0.01 67 1011.4
20191017201002 82 1 3.0 9.0 0.00 0.01 0.01 66 1011.4
20191017200803 82 358 4.0 9.0 0.00 0.01 0.01 66 1011.4
20191017200604 82 356 4.0 9.0 0.00 0.01 0.01 66 1011.5
20191017200403 82 349 3.0 12.0 0.00 0.01 0.01 65 1011.4
20191017200203 83 344 2.0 12.0 0.00 0.01 0.01 65 1011.5
20191017200003 83 344 2.0 12.0 0.00 0.01 0.01 64 1011.6
20191017195802 83 345 2.0 12.0 0.00 0.01 0.01 65 1011.5
20191017195602 83 340 1.0 12.0 0.00 0.01 0.01 65 1011.5
20191017195403 83 340 1.0 5.0 0.00 0.01 0.01 65 1011.5
20191017195202 83 345 2.0 7.0 0.00 0.01 0.01 66 1011.6
20191017195002 83 342 2.0 7.0 0.00 0.01 0.01 65 1011.6
20191017194803 83 337 3.0 7.0 0.00 0.01 0.01 64 1011.6
20191017194603 83 342 3.0 7.0 0.00 0.01 0.01 65 1011.6
20191017194402 84 344 4.0 7.0 0.00 0.01 0.01 64 1011.7
20191017194202 84 345 2.0 6.0 0.00 0.01 0.01 65 1011.6
20191017194002 84 345 2.0 6.0 0.00 0.01 0.01 66 1011.6
20191017193803 84 345 2.0 6.0 0.00 0.01 0.01 65 1011.6
20191017193602 84 346 2.0 6.0 0.00 0.01 0.01 66 1011.6
20191017193403 83 347 2.0 6.0 0.00 0.01 0.01 67 1011.7
20191017193202 83 345 2.0 6.0 0.00 0.01 0.01 68 1011.6
20191017193003 83 353 3.0 6.0 0.00 0.01 0.01 68 1011.7
20191017192802 83 353 3.0 6.0 0.00 0.01 0.01 68 1011.7
20191017192602 83 355 3.0 10.0 0.00 0.01 0.01 67 1011.7
20191017192403 83 356 4.0 10.0 0.00 0.01 0.01 67 1011.7
20191017192202 83 359 3.0 10.0 0.00 0.01 0.01 68 1011.7
20191017192002 83 356 3.0 10.0 0.00 0.01 0.01 68 1011.7
20191017191803 83 354 3.0 10.0 0.00 0.01 0.01 67 1011.7
20191017191602 83 352 2.0 8.0 0.00 0.01 0.01 67 1011.8
20191017191402 83 351 2.0 9.0 0.00 0.01 0.01 68 1011.7
20191017191203 83 350 2.0 9.0 0.00 0.01 0.01 69 1011.8
20191017191002 82 348 2.0 9.0 0.00 0.01 0.01 68 1011.8
20191017190802 82 349 2.0 9.0 0.00 0.01 0.01 69 1011.8
20191017190603 82 348 2.0 9.0 0.00 0.01 0.01 68 1011.8
20191017190402 82 348 2.0 7.0 0.00 0.01 0.01 69 1011.7
20191017190203 82 351 2.0 7.0 0.00 0.01 0.01 68 1011.8
20191017190002 82 353 2.0 7.0 0.00 0.01 0.01 69 1011.8
20191017185802 82 359 3.0 7.0 0.00 0.01 0.01 70 1011.9
20191017185603 82 356 2.0 7.0 0.00 0.01 0.01 69 1011.9
20191017185403 82 357 2.0 7.0 0.00 0.01 0.01 69 1011.9
20191017185202 82 355 2.0 7.0 0.00 0.01 0.01 69 1012.0
20191017185002 82 358 2.0 9.0 0.00 0.01 0.01 70 1011.9
20191017184803 82 354 2.0 9.0 0.00 0.01 0.01 70 1012.0
20191017184602 82 358 2.0 9.0 0.00 0.01 0.01 70 1012.0
20191017184403 81 358 2.0 9.0 0.00 0.01 0.01 70 1012.0
20191017184203 81 359 2.0 9.0 0.00 0.01 0.01 70 1012.0
20191017184002 82 358 1.0 6.0 0.00 0.01 0.01 70 1012.1
20191017183803 82 5 1.0 6.0 0.00 0.01 0.01 70 1012.1
20191017183602 81 359 2.0 5.0 0.00 0.01 0.01 71 1012.1
20191017183403 81 355 2.0 6.0 0.00 0.01 0.01 70 1012.1
20191017183203 82 355 1.0 6.0 0.00 0.01 0.01 70 1012.1
20191017183002 82 351 2.0 6.0 0.00 0.01 0.01 71 1012.1
20191017182803 82 347 2.0 6.0 0.00 0.01 0.01 71 1012.1
20191017182602 82 348 2.0 6.0 0.00 0.01 0.01 70 1012.1
20191017182403 82 344 2.0 6.0 0.00 0.01 0.01 71 1012.1
20191017182203 81 344 3.0 6.0 0.00 0.01 0.01 70 1012.2
20191017182003 81 337 3.0 6.0 0.00 0.01 0.01 70 1012.2
20191017181802 81 334 2.0 6.0 0.00 0.01 0.01 70 1012.2
20191017181603 82 323 2.0 6.0 0.00 0.01 0.01 70 1012.3
20191017181403 82 322 1.0 6.0 0.00 0.01 0.01 70 1012.3
20191017181202 82 303 1.0 6.0 0.00 0.01 0.01 70 1012.4
20191017181002 82 340 0.0 5.0 0.00 0.01 0.01 70 1012.4
20191017180802 82 261 1.0 5.0 0.00 0.01 0.01 71 1012.3
20191017180604 82 244 1.0 3.0 0.00 0.01 0.01 71 1012.4
20191017180402 82 248 1.0 3.0 0.00 0.01 0.01 70 1012.4
20191017180202 82 256 1.0 3.0 0.00 0.01 0.01 71 1012.4
20191017180003 82 256 1.0 3.0 0.00 0.01 0.01 71 1012.4
20191017175802 81 276 0.0 3.0 0.00 0.01 0.01 73 1012.3
20191017175602 81 291 0.0 3.0 0.00 0.01 0.01 72 1012.4
20191017175403 81 294 1.0 3.0 0.00 0.01 0.01 72 1012.4
20191017175202 81 301 0.0 3.0 0.00 0.01 0.01 73 1012.5
20191017175003 80 300 1.0 3.0 0.00 0.01 0.01 74 1012.5
20191017174803 80 318 1.0 5.0 0.00 0.01 0.01 73 1012.5
20191017174602 80 315 1.0 5.0 0.00 0.01 0.01 73 1012.5
20191017174402 80 346 1.0 7.0 0.00 0.01 0.01 72 1012.6
20191017174203 80 350 1.0 7.0 0.00 0.01 0.01 72 1012.5
20191017174003 80 355 1.0 7.0 0.00 0.01 0.01 73 1012.6
20191017173803 80 1 1.0 7.0 0.00 0.01 0.01 74 1012.7
20191017173602 80 347 1.0 7.0 0.00 0.01 0.01 73 1012.7
20191017173402 80 333 1.0 5.0 0.00 0.01 0.01 73 1012.7
20191017173202 80 347 1.0 5.0 0.00 0.01 0.01 73 1012.7
20191017173002 80 338 1.0 5.0 0.00 0.01 0.01 74 1012.7
20191017172803 80 326 1.0 5.0 0.00 0.01 0.01 74 1012.7
20191017172602 80 343 1.0 5.0 0.00 0.01 0.01 74 1012.8
20191017172402 80 331 1.0 5.0 0.00 0.01 0.01 74 1012.8
20191017172203 80 301 1.0 4.0 0.00 0.01 0.01 74 1012.9
20191017172003 80 303 0.0 4.0 0.00 0.01 0.01 74 1012.9
20191017171802 80 325 1.0 3.0 0.00 0.01 0.01 74 1012.9
20191017171603 79 340 1.0 4.0 0.00 0.01 0.01 75 1013.0
20191017171403 79 348 1.0 5.0 0.00 0.04 0.01 75 1013.0
20191017171202 79 351 1.0 5.0 0.00 0.04 0.01 76 1013.0
20191017171002 79 351 1.0 5.0 0.00 0.04 0.01 75 1013.1
20191017170803 79 332 1.0 5.0 0.00 0.04 0.01 75 1013.1
20191017170603 79 297 0.0 5.0 0.00 0.04 0.01 74 1013.1
20191017170402 79 244 1.0 4.0 0.00 0.04 0.01 75 1013.2
20191017170202 79 346 1.0 4.0 0.00 0.04 0.01 75 1013.2
20191017170002 78 354 1.0 4.0 0.00 0.04 0.01 75 1013.2
20191017165803 78 15 1.0 4.0 0.00 0.04 0.01 76 1013.2
20191017165602 78 11 2.0 5.0 0.00 0.04 0.01 76 1013.2
20191017165403 78 11 2.0 5.0 0.00 0.04 0.01 77 1013.2
20191017165202 78 10 2.0 5.0 0.00 0.04 0.01 76 1013.2
20191017165002 78 14 2.0 5.0 0.00 0.04 0.01 75 1013.2
20191017164803 78 11 2.0 7.0 0.00 0.04 0.01 76 1013.2
20191017164603 77 15 2.0 7.0 0.00 0.04 0.01 76 1013.1
20191017164402 77 14 2.0 7.0 0.00 0.04 0.01 76 1013.1
20191017164202 77 14 1.0 7.0 0.00 0.04 0.01 76 1013.2
20191017164003 77 11 2.0 7.0 0.00 0.04 0.01 77 1013.2
20191017163802 77 13 1.0 6.0 0.00 0.04 0.01 77 1013.2
20191017163602 77 12 1.0 6.0 0.00 0.04 0.01 77 1013.3
20191017163403 77 13 1.0 6.0 0.00 0.04 0.01 77 1013.3
20191017163203 77 13 1.0 6.0 0.00 0.04 0.01 77 1013.4
20191017163002 77 13 1.0 6.0 0.00 0.04 0.01 77 1013.4
20191017162803 77 18 1.0 4.0 0.00 0.04 0.01 78 1013.3
20191017162602 77 18 1.0 4.0 0.00 0.04 0.01 78 1013.3
20191017162402 77 18 1.0 4.0 0.00 0.04 0.01 78 1013.3
20191017162202 76 18 1.0 4.0 0.00 0.04 0.01 78 1013.5
20191017162003 76 19 1.0 4.0 0.00 0.04 0.01 78 1013.5
20191017161802 76 17 0.0 4.0 0.00 0.04 0.01 79 1013.5
20191017161602 76 16 0.0 3.0 0.00 0.04 0.01 79 1013.5
20191017161403 76 10 1.0 5.0 0.00 0.04 0.01 79 1013.5
20191017161203 76 8 1.0 5.0 0.00 0.04 0.01 79 1013.5
20191017161002 76 7 2.0 5.0 0.00 0.04 0.01 79 1013.5
20191017160802 76 4 2.0 5.0 0.00 0.04 0.01 79 1013.6
20191017160603 76 3 2.0 6.0 0.00 0.04 0.01 80 1013.6
20191017160402 76 4 2.0 6.0 0.00 0.04 0.01 80 1013.7
20191017160203 76 3 2.0 6.0 0.00 0.04 0.01 80 1013.6
20191017160002 76 4 2.0 6.0 0.00 0.04 0.01 80 1013.6
20191017155803 76 7 2.0 6.0 0.00 0.04 0.01 80 1013.6
20191017155602 76 9 1.0 6.0 0.00 0.04 0.01 80 1013.7
20191017155403 76 7 1.0 4.0 0.00 0.04 0.01 81 1013.7
20191017155202 76 13 1.0 4.0 0.00 0.04 0.01 81 1013.7
20191017155003 76 15 1.0 6.0 0.00 0.04 0.01 81 1013.7
20191017154803 76 13 2.0 6.0 0.00 0.04 0.01 81 1013.8
20191017154602 76 14 2.0 6.0 0.00 0.04 0.01 81 1013.8
20191017154403 76 14 2.0 6.0 0.00 0.04 0.01 81 1013.8
20191017154202 76 14 1.0 6.0 0.00 0.04 0.01 81 1013.8
20191017154002 76 13 1.0 5.0 0.00 0.04 0.01 81 1013.8
20191017153803 76 12 1.0 5.0 0.00 0.04 0.01 82 1013.7
20191017153603 76 350 0.0 3.0 0.00 0.04 0.01 82 1013.7
20191017153402 75 354 0.0 3.0 0.00 0.04 0.01 82 1013.7
20191017153202 75 3 1.0 4.0 0.00 0.04 0.01 81 1013.7
20191017153002 75 3 1.0 4.0 0.00 0.04 0.01 81 1013.7
20191017152802 75 5 0.0 4.0 0.00 0.04 0.01 81 1013.7
20191017152603 75 18 0.0 4.0 0.00 0.04 0.01 82 1013.7
20191017152403 75 24 0.0 4.0 0.00 0.04 0.01 83 1013.7
20191017152203 74 22 1.0 4.0 0.00 0.04 0.01 83 1013.7
20191017152002 74 17 2.0 5.0 0.00 0.04 0.01 83 1013.8
20191017151803 74 16 3.0 6.0 0.00 0.04 0.01 83 1013.8
20191017151603 74 15 3.0 6.0 0.00 0.04 0.01 83 1013.8
20191017151402 74 10 3.0 6.0 0.00 0.04 0.01 83 1013.9
20191017151202 74 11 3.0 6.0 0.00 0.04 0.01 83 1014.0
20191017151003 74 13 3.0 6.0 0.00 0.04 0.01 84 1013.9
20191017150804 74 13 2.0 6.0 0.00 0.04 0.01 84 1014.0
20191017150602 74 10 1.0 6.0 0.00 0.04 0.01 84 1014.0
20191017150403 74 14 1.0 6.0 0.00 0.04 0.01 84 1014.0
20191017150203 74 13 0.0 6.0 0.00 0.04 0.01 84 1014.0
20191017150003 74 19 0.0 3.0 0.00 0.04 0.01 84 1014.0
20191017145803 74 19 0.0 3.0 0.00 0.04 0.01 85 1014.0
20191017145603 74 20 0.0 3.0 0.00 0.04 0.01 84 1014.1